ADDS METAR Data INFO
IDs: Format: Raw Decoded Include TAF

Data at: 0936 UTC 11 Dec 2017

KVER 110915Z AUTO 19003KT 10SM CLR 01/M05 A3004 RMK AO2 T00121046
KVER 110855Z AUTO 21004KT 10SM CLR 00/M04 A3005 RMK AO2 T00031045
KVER 110835Z AUTO 17005KT 10SM CLR 00/M04 A3006 RMK AO2 T00001045
KVER 110815Z AUTO 17005KT 10SM CLR 01/M04 A3007 RMK AO2 T00051045
KVER 110755Z AUTO 19003KT 10SM CLR 01/M04 A3008 RMK AO2 T00111045
KVER 110735Z AUTO 20003KT 10SM CLR 01/M04 A3008 RMK AO2 T00121045
KVER 110715Z AUTO 21003KT 10SM CLR 02/M04 A3009 RMK AO2 T00161044
KVER 110655Z AUTO 22003KT 10SM CLR 02/M04 A3010 RMK AO2 T00181044
KVER 110635Z AUTO 22003KT 10SM CLR 02/M04 A3011 RMK AO2 T00171044
KVER 110615Z AUTO 20003KT 10SM CLR 02/M04 A3011 RMK AO2 T00201044
KVER 110555Z AUTO 20003KT 10SM CLR 02/M04 A3012 RMK AO2 T00231043 10341 21097 403411097
KVER 110535Z AUTO 22003KT 10SM CLR 01/M04 A3013 RMK AO2 T00121044
KVER 110515Z AUTO 19003KT 10SM CLR 02/M04 A3013 RMK AO2 T00201044
KVER 110455Z AUTO 00000KT 10SM CLR 03/M04 A3013 RMK AO2 T00321043
KVER 110435Z AUTO 00000KT 10SM CLR 03/M04 A3013 RMK AO2 T00321043
KVER 110415Z AUTO 21003KT 10SM CLR 03/M04 A3013 RMK AO2 T00291043
KVER 110355Z AUTO 20003KT 10SM CLR 03/M04 A3014 RMK AO2 T00331043
KVER 110335Z AUTO 19003KT 10SM CLR 04/M04 A3014 RMK AO2 T00381044
KVER 110315Z AUTO 00000KT 10SM CLR 05/M04 A3014 RMK AO2 T00521044
KVER 110255Z AUTO 00000KT 10SM CLR 06/M04 A3015 RMK AO2 T00591045
KVER 110235Z AUTO 00000KT 10SM CLR 06/M04 A3014 RMK AO2 T00601045
KVER 110215Z AUTO 25003KT 10SM CLR 05/M04 A3014 RMK AO2 T00541045
KVER 110155Z AUTO 24004KT 10SM CLR 06/M04 A3014 RMK AO2 T00591045
KVER 110135Z AUTO 23003KT 10SM CLR 07/M05 A3013 RMK AO2 T00731047
KVER 110115Z AUTO 00000KT 10SM CLR 08/M05 A3013 RMK AO2 T00801048
KVER 110055Z AUTO 24003KT 10SM CLR 08/M05 A3013 RMK AO2 T00831048
KVER 110035Z AUTO 25004KT 10SM CLR 09/M05 A3013 RMK AO2 T00861051
KVER 110015Z AUTO 26003KT 10SM CLR 09/M05 A3013 RMK AO2 T00871051
KVER 102355Z AUTO 26005KT 10SM CLR 09/M05 A3012 RMK AO2 T00911051 10341 21097
KVER 102335Z AUTO 26005KT 10SM CLR 10/M05 A3011 RMK AO2 T00961050
KVER 102315Z AUTO 27005KT 10SM CLR 10/M05 A3011 RMK AO2 T01001050
KVER 102255Z AUTO 28005KT 10SM CLR 11/M05 A3011 RMK AO2 T01051050
KVER 102235Z AUTO 28008KT 10SM CLR 11/M05 A3010 RMK AO2 T01101050
KVER 102215Z AUTO 28005KT 10SM CLR 12/M05 A3009 RMK AO2 T01151051
KVER 102155Z AUTO 28006G14KT 10SM CLR 12/M05 A3008 RMK AO2 T01181051
KVER 102135Z AUTO 28010G14KT 10SM CLR 12/M05 A3007 RMK AO2 T01211050
KVER 102115Z AUTO 28010G14KT 10SM CLR 12/M05 A3007 RMK AO2 T01211051
KVER 102055Z AUTO 29009G15KT 10SM CLR 12/M05 A3006 RMK AO2 T01211051
KVER 102035Z AUTO 27010G15KT 10SM CLR 12/M05 A3006 RMK AO2 T01191053
KVER 102015Z AUTO 29008G17KT 10SM CLR 12/M05 A3006 RMK AO2 T01171053
KVER 101955Z AUTO 28009G18KT 10SM CLR 11/M05 A3006 RMK AO2 T01141051
KVER 101935Z AUTO 27011G16KT 10SM CLR 11/M05 A3006 RMK AO2 T01101048
KVER 101915Z AUTO 27010G18KT 10SM CLR 11/M05 A3006 RMK AO2 T01081048
KVER 101855Z AUTO 28008G14KT 10SM CLR 10/M05 A3006 RMK AO2 T01021050
KVER 101835Z AUTO 27009KT 10SM CLR 10/M05 A3006 RMK AO2 T01001049
KVER 101815Z AUTO 28007KT 10SM CLR 10/M05 A3007 RMK AO2 T00971049
KVER 101755Z AUTO 26008KT 10SM CLR 09/M05 A3006 RMK AO2 T00881049 10341 21097
KVER 101735Z AUTO 29009G15KT 10SM CLR 08/M05 A3007 RMK AO2 T00801050
KVER 101715Z AUTO 27012G16KT 10SM CLR 07/M05 A3007 RMK AO2 T00741050
KVER 101655Z AUTO 29011G19KT 10SM CLR 07/M05 A3008 RMK AO2 T00691051
KVER 101635Z AUTO 27011G17KT 10SM CLR 06/M05 A3008 RMK AO2 T00601051
KVER 101615Z AUTO 27007G16KT 10SM CLR 06/M05 A3008 RMK AO2 T00561051
KVER 101555Z AUTO 29011G15KT 10SM CLR 05/M05 A3008 RMK AO2 T00501053
KVER 101535Z AUTO 28008G16KT 10SM CLR 04/M05 A3008 RMK AO2 T00431052
KVER 101515Z AUTO 25009G14KT 10SM CLR 04/M05 A3006 RMK AO2 T00361052
KVER 101455Z AUTO 26007KT 10SM CLR 03/M05 A3007 RMK AO2 T00261055
KVER 101435Z AUTO 24008KT 10SM CLR 02/M06 A3006 RMK AO2 T00191056
KVER 101415Z AUTO 24007KT 10SM CLR 02/M06 A3006 RMK AO2 T00151057
KVER 101355Z AUTO 24008KT 10SM CLR 01/M06 A3005 RMK AO2 T00111059
KVER 101335Z AUTO 25006KT 10SM CLR 01/M06 A3005 RMK AO2 T00091060
KVER 101315Z AUTO 24007KT 10SM CLR 00/M06 A3005 RMK AO2 T00031063
KVER 101255Z AUTO 22006KT 10SM CLR 00/M06 A3005 RMK AO2 T00011065
KVER 101235Z AUTO 21006KT 10SM CLR 00/M06 A3005 RMK AO2 T00011065
KVER 101215Z AUTO 21008KT 10SM CLR 00/M07 A3005 RMK AO2 T10021066
KVER 101155Z AUTO 22005KT 10SM CLR M01/M07 A3005 RMK AO2 T10101069 10341 21097
KVER 101135Z AUTO 19005KT 10SM CLR M01/M07 A3005 RMK AO2 T10121070
KVER 101115Z AUTO 21007KT 10SM CLR M01/M07 A3005 RMK AO2 T10141071
KVER 101055Z AUTO 20008KT 10SM CLR M02/M07 A3005 RMK AO2 T10211074
KVER 101035Z AUTO 20005KT 10SM CLR M03/M08 A3007 RMK AO2 T10281076
KVER 101015Z AUTO 19006KT 10SM CLR M03/M08 A3008 RMK AO2 T10321080
KVER 100955Z AUTO 20006KT 10SM CLR M04/M08 A3009 RMK AO2 T10391084
KVER 100935Z AUTO 19004KT 10SM CLR M05/M09 A3010 RMK AO2 T10481087
KVER 100915Z AUTO 19005KT 10SM CLR M06/M09 A3011 RMK AO2 T10561093
KVER 100855Z AUTO 18004KT 10SM CLR M05/M09 A3013 RMK AO2 T10541095
KVER 100835Z AUTO 19004KT 10SM CLR M06/M09 A3014 RMK AO2 T10591095
KVER 100815Z AUTO 18006KT 10SM CLR M07/M10 A3014 RMK AO2 T10661099
KVER 100755Z AUTO 18005KT 10SM CLR M06/M10 A3015 RMK AO2 T10641099
KVER 100735Z AUTO 17005KT 10SM CLR M06/M10 A3016 RMK AO2 T10631098
KVER 100715Z AUTO 17003KT 10SM CLR M06/M10 A3017 RMK AO2 T10651098
KVER 100655Z AUTO 17004KT 10SM CLR M06/M10 A3018 RMK AO2 T10631099
KVER 100635Z AUTO 17003KT 10SM CLR M06/M10 A3019 RMK AO2 T10611098
KVER 100615Z AUTO 17004KT 10SM CLR M07/M10 A3018 RMK AO2 T10661099
KVER 100555Z AUTO 17003KT 10SM CLR M06/M10 A3018 RMK AO2 T10621096 10341 21097 403411097
KVER 100535Z AUTO 20003KT 10SM CLR M06/M09 A3020 RMK AO2 T10621094
KVER 100515Z AUTO 00000KT 10SM CLR M06/M09 A3021 RMK AO2 T10611095
KVER 100455Z AUTO 19003KT 10SM CLR M06/M09 A3020 RMK AO2 T10591094
KVER 100435Z AUTO 20003KT 10SM CLR M05/M09 A3020 RMK AO2 T10541093
KVER 100415Z AUTO 21003KT 10SM CLR M05/M09 A3020 RMK AO2 T10461095
KVER 100355Z AUTO 00000KT 10SM CLR M04/M09 A3021 RMK AO2 T10451094
KVER 100335Z AUTO 00000KT 10SM CLR M04/M09 A3022 RMK AO2 T10431094
KVER 100315Z AUTO 23003KT 10SM CLR M04/M09 A3022 RMK AO2 T10411094
KVER 100255Z AUTO 00000KT 10SM CLR M04/M09 A3022 RMK AO2 T10451095
KVER 100235Z AUTO 00000KT 10SM CLR M04/M09 A3023 RMK AO2 T10401095
KVER 100215Z AUTO 00000KT 10SM CLR M03/M10 A3023 RMK AO2 T10291096
KVER 100155Z AUTO 00000KT 10SM CLR M02/M09 A3023 RMK AO2 T10241095
KVER 100135Z AUTO 00000KT 10SM CLR M03/M09 A3023 RMK AO2 T10331092
KVER 100115Z AUTO 28003KT 10SM CLR M02/M09 A3022 RMK AO2 T10251095
KVER 100055Z AUTO 00000KT 10SM CLR M02/M09 A3022 RMK AO2 T10161094
KVER 100035Z AUTO 00000KT 10SM CLR M02/M09 A3021 RMK AO2 T10161092
KVER 100015Z AUTO 00000KT 10SM CLR M01/M09 A3022 RMK AO2 T10151090
KVER 092355Z AUTO 00000KT 10SM CLR M01/M09 A3022 RMK AO2 T10121090 10341 21097
KVER 092335Z AUTO 00000KT 10SM CLR M01/M09 A3022 RMK AO2 T10121090
KVER 092315Z AUTO 00000KT 10SM CLR M01/M09 A3021 RMK AO2 T10111091
KVER 092255Z AUTO 32005KT 10SM CLR M01/M09 A3020 RMK AO2 T10081091
KVER 092235Z AUTO 33005KT 10SM CLR 00/M09 A3019 RMK AO2 T10021091
KVER 092215Z AUTO 33007KT 10SM CLR 00/M09 A3018 RMK AO2 T00011092
KVER 092155Z AUTO 32011G14KT 10SM CLR 01/M09 A3018 RMK AO2 T00071091